sensor_id;sensor_type;location;lat;lon;timestamp;temperature;humidity
4578;DHT22;2301;47.354;8.528;2024-01-07T00:00:28;10.40;92.50
4578;DHT22;2301;47.354;8.528;2024-01-07T00:02:56;10.40;92.30
4578;DHT22;2301;47.354;8.528;2024-01-07T00:05:24;10.40;92.50
4578;DHT22;2301;47.354;8.528;2024-01-07T00:07:51;10.40;92.70
4578;DHT22;2301;47.354;8.528;2024-01-07T00:10:18;10.40;92.70
4578;DHT22;2301;47.354;8.528;2024-01-07T00:12:45;10.40;92.60
4578;DHT22;2301;47.354;8.528;2024-01-07T00:15:12;10.50;92.80
4578;DHT22;2301;47.354;8.528;2024-01-07T00:17:39;10.60;92.80
4578;DHT22;2301;47.354;8.528;2024-01-07T00:20:07;10.50;92.00
4578;DHT22;2301;47.354;8.528;2024-01-07T00:22:35;10.50;92.00
4578;DHT22;2301;47.354;8.528;2024-01-07T00:25:02;10.50;92.10
4578;DHT22;2301;47.354;8.528;2024-01-07T00:27:31;10.50;91.90
4578;DHT22;2301;47.354;8.528;2024-01-07T00:30:02;10.40;91.80
4578;DHT22;2301;47.354;8.528;2024-01-07T00:32:31;10.40;91.70
4578;DHT22;2301;47.354;8.528;2024-01-07T00:34:57;10.40;91.70
4578;DHT22;2301;47.354;8.528;2024-01-07T00:37:24;10.40;91.70
4578;DHT22;2301;47.354;8.528;2024-01-07T00:39:53;10.40;91.70
4578;DHT22;2301;47.354;8.528;2024-01-07T00:42:20;10.40;91.70
4578;DHT22;2301;47.354;8.528;2024-01-07T00:44:47;10.40;91.90
4578;DHT22;2301;47.354;8.528;2024-01-07T00:47:14;10.40;92.00
4578;DHT22;2301;47.354;8.528;2024-01-07T00:49:41;10.40;92.00
4578;DHT22;2301;47.354;8.528;2024-01-07T00:52:08;10.40;91.80
4578;DHT22;2301;47.354;8.528;2024-01-07T00:54:36;10.60;92.40
4578;DHT22;2301;47.354;8.528;2024-01-07T00:57:04;10.50;92.20
4578;DHT22;2301;47.354;8.528;2024-01-07T00:59:31;10.50;92.20
4578;DHT22;2301;47.354;8.528;2024-01-07T01:01:58;10.50;91.60
4578;DHT22;2301;47.354;8.528;2024-01-07T01:04:25;10.60;91.80
4578;DHT22;2301;47.354;8.528;2024-01-07T01:06:51;10.50;91.90
4578;DHT22;2301;47.354;8.528;2024-01-07T01:09:18;10.50;91.50
4578;DHT22;2301;47.354;8.528;2024-01-07T01:11:45;10.50;91.20
4578;DHT22;2301;47.354;8.528;2024-01-07T01:14:13;10.50;91.30
4578;DHT22;2301;47.354;8.528;2024-01-07T01:16:40;10.50;91.40
4578;DHT22;2301;47.354;8.528;2024-01-07T01:19:07;10.60;91.50
4578;DHT22;2301;47.354;8.528;2024-01-07T01:21:34;10.50;91.40
4578;DHT22;2301;47.354;8.528;2024-01-07T01:24:01;10.50;91.60
4578;DHT22;2301;47.354;8.528;2024-01-07T01:26:28;10.50;91.20
4578;DHT22;2301;47.354;8.528;2024-01-07T01:28:54;10.50;91.00
4578;DHT22;2301;47.354;8.528;2024-01-07T01:31:23;10.50;91.10
4578;DHT22;2301;47.354;8.528;2024-01-07T01:33:49;10.50;90.70
4578;DHT22;2301;47.354;8.528;2024-01-07T01:36:16;10.50;91.10
4578;DHT22;2301;47.354;8.528;2024-01-07T01:38:43;10.50;91.00
4578;DHT22;2301;47.354;8.528;2024-01-07T01:41:10;10.50;91.10
4578;DHT22;2301;47.354;8.528;2024-01-07T01:43:37;10.50;91.00
4578;DHT22;2301;47.354;8.528;2024-01-07T01:46:04;10.50;91.20
4578;DHT22;2301;47.354;8.528;2024-01-07T01:48:32;10.50;91.10
4578;DHT22;2301;47.354;8.528;2024-01-07T01:50:59;10.50;91.00
4578;DHT22;2301;47.354;8.528;2024-01-07T01:53:26;10.50;90.90
4578;DHT22;2301;47.354;8.528;2024-01-07T01:55:56;10.50;90.90
4578;DHT22;2301;47.354;8.528;2024-01-07T01:58:24;10.50;90.80
4578;DHT22;2301;47.354;8.528;2024-01-07T02:00:52;10.40;90.70
4578;DHT22;2301;47.354;8.528;2024-01-07T02:03:19;10.50;90.80
4578;DHT22;2301;47.354;8.528;2024-01-07T02:05:48;10.40;90.60
4578;DHT22;2301;47.354;8.528;2024-01-07T02:08:15;10.40;90.90
4578;DHT22;2301;47.354;8.528;2024-01-07T02:10:43;10.50;91.30
4578;DHT22;2301;47.354;8.528;2024-01-07T02:13:10;10.50;91.20
4578;DHT22;2301;47.354;8.528;2024-01-07T02:15:37;10.50;91.00
4578;DHT22;2301;47.354;8.528;2024-01-07T02:18:04;10.50;90.70
4578;DHT22;2301;47.354;8.528;2024-01-07T02:20:31;10.50;90.80
4578;DHT22;2301;47.354;8.528;2024-01-07T02:22:59;10.50;90.80
4578;DHT22;2301;47.354;8.528;2024-01-07T02:25:28;10.50;90.80
4578;DHT22;2301;47.354;8.528;2024-01-07T02:27:54;10.50;90.80
4578;DHT22;2301;47.354;8.528;2024-01-07T02:30:21;10.50;90.80
4578;DHT22;2301;47.354;8.528;2024-01-07T02:32:48;10.50;90.40
4578;DHT22;2301;47.354;8.528;2024-01-07T02:35:15;10.50;90.60
4578;DHT22;2301;47.354;8.528;2024-01-07T02:37:43;10.50;90.50
4578;DHT22;2301;47.354;8.528;2024-01-07T02:40:10;10.70;91.00
4578;DHT22;2301;47.354;8.528;2024-01-07T02:42:39;10.60;90.90
4578;DHT22;2301;47.354;8.528;2024-01-07T02:45:06;10.60;91.10
4578;DHT22;2301;47.354;8.528;2024-01-07T02:47:33;10.60;90.60
4578;DHT22;2301;47.354;8.528;2024-01-07T02:50:00;10.60;90.50
4578;DHT22;2301;47.354;8.528;2024-01-07T02:52:27;10.60;90.70
4578;DHT22;2301;47.354;8.528;2024-01-07T02:54:53;10.60;90.80
4578;DHT22;2301;47.354;8.528;2024-01-07T02:57:19;10.60;91.10
4578;DHT22;2301;47.354;8.528;2024-01-07T02:59:48;10.70;90.50
4578;DHT22;2301;47.354;8.528;2024-01-07T03:02:14;10.60;90.40
4578;DHT22;2301;47.354;8.528;2024-01-07T03:04:43;10.60;90.50
4578;DHT22;2301;47.354;8.528;2024-01-07T03:07:10;10.60;90.50
4578;DHT22;2301;47.354;8.528;2024-01-07T03:09:36;10.60;90.60
4578;DHT22;2301;47.354;8.528;2024-01-07T03:12:04;10.60;90.40
4578;DHT22;2301;47.354;8.528;2024-01-07T03:14:31;10.60;90.50
4578;DHT22;2301;47.354;8.528;2024-01-07T03:16:59;10.60;90.30
4578;DHT22;2301;47.354;8.528;2024-01-07T03:19:26;10.60;90.50
4578;DHT22;2301;47.354;8.528;2024-01-07T03:21:52;10.60;90.60
4578;DHT22;2301;47.354;8.528;2024-01-07T03:24:19;10.60;90.60
4578;DHT22;2301;47.354;8.528;2024-01-07T03:26:46;10.60;90.40
4578;DHT22;2301;47.354;8.528;2024-01-07T03:29:13;10.60;90.30
4578;DHT22;2301;47.354;8.528;2024-01-07T03:31:40;10.60;90.20
4578;DHT22;2301;47.354;8.528;2024-01-07T03:34:08;10.60;90.10
4578;DHT22;2301;47.354;8.528;2024-01-07T03:36:35;10.60;89.80
4578;DHT22;2301;47.354;8.528;2024-01-07T03:39:02;10.60;89.50
4578;DHT22;2301;47.354;8.528;2024-01-07T03:41:28;10.50;89.80
4578;DHT22;2301;47.354;8.528;2024-01-07T03:43:55;10.50;89.70
4578;DHT22;2301;47.354;8.528;2024-01-07T03:46:22;10.60;90.60
4578;DHT22;2301;47.354;8.528;2024-01-07T03:48:49;10.60;90.20
4578;DHT22;2301;47.354;8.528;2024-01-07T03:51:17;10.60;90.10
4578;DHT22;2301;47.354;8.528;2024-01-07T03:53:44;10.50;89.40
4578;DHT22;2301;47.354;8.528;2024-01-07T03:56:11;10.50;89.80
4578;DHT22;2301;47.354;8.528;2024-01-07T03:58:38;10.50;89.90
4578;DHT22;2301;47.354;8.528;2024-01-07T04:01:05;10.50;89.90
4578;DHT22;2301;47.354;8.528;2024-01-07T04:03:31;10.50;89.80
4578;DHT22;2301;47.354;8.528;2024-01-07T04:05:58;10.50;89.70
4578;DHT22;2301;47.354;8.528;2024-01-07T04:08:26;10.40;89.50
4578;DHT22;2301;47.354;8.528;2024-01-07T04:10:54;10.40;89.40
4578;DHT22;2301;47.354;8.528;2024-01-07T04:13:20;10.40;90.30
4578;DHT22;2301;47.354;8.528;2024-01-07T04:15:47;10.50;90.80
4578;DHT22;2301;47.354;8.528;2024-01-07T04:18:14;10.50;90.40
4578;DHT22;2301;47.354;8.528;2024-01-07T04:20:41;10.50;89.50
4578;DHT22;2301;47.354;8.528;2024-01-07T04:23:08;10.50;89.50
4578;DHT22;2301;47.354;8.528;2024-01-07T04:25:36;10.40;89.40
4578;DHT22;2301;47.354;8.528;2024-01-07T04:28:04;10.40;90.00
4578;DHT22;2301;47.354;8.528;2024-01-07T04:30:30;10.40;89.90
4578;DHT22;2301;47.354;8.528;2024-01-07T04:32:57;10.40;89.40
4578;DHT22;2301;47.354;8.528;2024-01-07T04:35:24;10.40;90.00
4578;DHT22;2301;47.354;8.528;2024-01-07T04:37:51;10.40;90.00
4578;DHT22;2301;47.354;8.528;2024-01-07T04:40:18;10.40;89.80
4578;DHT22;2301;47.354;8.528;2024-01-07T04:42:46;10.40;90.00
4578;DHT22;2301;47.354;8.528;2024-01-07T04:45:13;10.40;89.80
4578;DHT22;2301;47.354;8.528;2024-01-07T04:47:40;10.50;90.00
4578;DHT22;2301;47.354;8.528;2024-01-07T04:50:07;10.40;90.00
4578;DHT22;2301;47.354;8.528;2024-01-07T04:52:34;10.40;89.30
4578;DHT22;2301;47.354;8.528;2024-01-07T04:55:01;10.40;89.00
4578;DHT22;2301;47.354;8.528;2024-01-07T04:57:28;10.40;89.70
4578;DHT22;2301;47.354;8.528;2024-01-07T04:59:56;10.40;90.10
4578;DHT22;2301;47.354;8.528;2024-01-07T05:02:23;10.30;88.50
4578;DHT22;2301;47.354;8.528;2024-01-07T05:04:49;10.30;88.80
4578;DHT22;2301;47.354;8.528;2024-01-07T05:07:16;10.30;88.60
4578;DHT22;2301;47.354;8.528;2024-01-07T05:09:43;10.20;88.00
4578;DHT22;2301;47.354;8.528;2024-01-07T05:12:10;10.20;89.10
4578;DHT22;2301;47.354;8.528;2024-01-07T05:14:37;10.20;88.80
4578;DHT22;2301;47.354;8.528;2024-01-07T05:17:06;10.30;89.40
4578;DHT22;2301;47.354;8.528;2024-01-07T05:19:33;10.30;89.30
4578;DHT22;2301;47.354;8.528;2024-01-07T05:22:00;10.30;89.40
4578;DHT22;2301;47.354;8.528;2024-01-07T05:24:27;10.30;89.40
4578;DHT22;2301;47.354;8.528;2024-01-07T05:26:54;10.30;89.20
4578;DHT22;2301;47.354;8.528;2024-01-07T05:29:20;10.20;88.90
4578;DHT22;2301;47.354;8.528;2024-01-07T05:31:47;10.20;89.50
4578;DHT22;2301;47.354;8.528;2024-01-07T05:34:16;10.20;88.20
4578;DHT22;2301;47.354;8.528;2024-01-07T05:36:42;10.20;89.20
4578;DHT22;2301;47.354;8.528;2024-01-07T05:39:09;10.30;89.50
4578;DHT22;2301;47.354;8.528;2024-01-07T05:41:37;10.20;88.40
4578;DHT22;2301;47.354;8.528;2024-01-07T05:44:05;10.20;89.00
4578;DHT22;2301;47.354;8.528;2024-01-07T05:46:32;10.10;88.30
4578;DHT22;2301;47.354;8.528;2024-01-07T05:48:59;10.10;89.00
4578;DHT22;2301;47.354;8.528;2024-01-07T05:51:28;10.20;89.70
4578;DHT22;2301;47.354;8.528;2024-01-07T05:53:54;10.20;89.10
4578;DHT22;2301;47.354;8.528;2024-01-07T05:56:21;10.10;88.60
4578;DHT22;2301;47.354;8.528;2024-01-07T05:58:48;10.10;89.00
4578;DHT22;2301;47.354;8.528;2024-01-07T06:01:18;10.10;89.30
4578;DHT22;2301;47.354;8.528;2024-01-07T06:03:46;10.20;89.40
4578;DHT22;2301;47.354;8.528;2024-01-07T06:06:13;10.20;89.50
4578;DHT22;2301;47.354;8.528;2024-01-07T06:08:41;10.20;89.20
4578;DHT22;2301;47.354;8.528;2024-01-07T06:11:09;10.10;88.90
4578;DHT22;2301;47.354;8.528;2024-01-07T06:13:38;10.10;88.40
4578;DHT22;2301;47.354;8.528;2024-01-07T06:16:05;10.10;88.80
4578;DHT22;2301;47.354;8.528;2024-01-07T06:18:32;10.10;89.10
4578;DHT22;2301;47.354;8.528;2024-01-07T06:20:59;10.10;88.50
4578;DHT22;2301;47.354;8.528;2024-01-07T06:23:26;10.10;88.30
4578;DHT22;2301;47.354;8.528;2024-01-07T06:25:54;10.00;88.40
4578;DHT22;2301;47.354;8.528;2024-01-07T06:28:21;10.10;89.10
4578;DHT22;2301;47.354;8.528;2024-01-07T06:30:48;10.00;89.20
4578;DHT22;2301;47.354;8.528;2024-01-07T06:33:15;10.00;89.10
4578;DHT22;2301;47.354;8.528;2024-01-07T06:35:41;10.00;88.90
4578;DHT22;2301;47.354;8.528;2024-01-07T06:38:08;10.00;89.20
4578;DHT22;2301;47.354;8.528;2024-01-07T06:40:35;10.00;89.00
4578;DHT22;2301;47.354;8.528;2024-01-07T06:43:03;10.00;89.20
4578;DHT22;2301;47.354;8.528;2024-01-07T06:45:31;10.00;88.10
4578;DHT22;2301;47.354;8.528;2024-01-07T06:47:57;10.00;89.20
4578;DHT22;2301;47.354;8.528;2024-01-07T06:50:26;10.00;89.20
4578;DHT22;2301;47.354;8.528;2024-01-07T06:52:53;10.10;89.40
4578;DHT22;2301;47.354;8.528;2024-01-07T06:55:21;10.00;90.00
4578;DHT22;2301;47.354;8.528;2024-01-07T06:57:48;10.00;87.20
4578;DHT22;2301;47.354;8.528;2024-01-07T07:00:17;9.80;84.20
4578;DHT22;2301;47.354;8.528;2024-01-07T07:02:44;9.60;82.40
4578;DHT22;2301;47.354;8.528;2024-01-07T07:05:11;9.30;81.20
4578;DHT22;2301;47.354;8.528;2024-01-07T07:07:37;9.10;80.70
4578;DHT22;2301;47.354;8.528;2024-01-07T07:10:05;8.90;80.40
4578;DHT22;2301;47.354;8.528;2024-01-07T07:12:32;8.80;80.50
4578;DHT22;2301;47.354;8.528;2024-01-07T07:14:58;8.70;80.20
4578;DHT22;2301;47.354;8.528;2024-01-07T07:17:27;8.60;79.90
4578;DHT22;2301;47.354;8.528;2024-01-07T07:19:53;8.50;79.80
4578;DHT22;2301;47.354;8.528;2024-01-07T07:22:20;8.40;80.60
4578;DHT22;2301;47.354;8.528;2024-01-07T07:24:47;8.30;80.20
4578;DHT22;2301;47.354;8.528;2024-01-07T07:27:14;8.20;80.30
4578;DHT22;2301;47.354;8.528;2024-01-07T07:29:42;8.10;80.50
4578;DHT22;2301;47.354;8.528;2024-01-07T07:32:12;8.00;80.80
4578;DHT22;2301;47.354;8.528;2024-01-07T07:34:44;7.90;81.70
4578;DHT22;2301;47.354;8.528;2024-01-07T07:37:16;7.90;81.10
4578;DHT22;2301;47.354;8.528;2024-01-07T07:39:44;7.80;81.40
4578;DHT22;2301;47.354;8.528;2024-01-07T07:42:11;7.70;81.80
4578;DHT22;2301;47.354;8.528;2024-01-07T07:44:38;7.70;82.10
4578;DHT22;2301;47.354;8.528;2024-01-07T07:47:05;7.60;82.20
4578;DHT22;2301;47.354;8.528;2024-01-07T07:49:33;7.60;82.40
4578;DHT22;2301;47.354;8.528;2024-01-07T07:52:03;7.50;82.30
4578;DHT22;2301;47.354;8.528;2024-01-07T07:54:29;7.50;82.70
4578;DHT22;2301;47.354;8.528;2024-01-07T07:56:56;7.50;82.90
4578;DHT22;2301;47.354;8.528;2024-01-07T07:59:23;7.40;83.10
4578;DHT22;2301;47.354;8.528;2024-01-07T08:01:50;7.40;83.10
4578;DHT22;2301;47.354;8.528;2024-01-07T08:04:17;7.40;83.20
4578;DHT22;2301;47.354;8.528;2024-01-07T08:06:44;7.30;83.50
4578;DHT22;2301;47.354;8.528;2024-01-07T08:09:13;7.30;83.80
4578;DHT22;2301;47.354;8.528;2024-01-07T08:11:39;7.30;84.10
4578;DHT22;2301;47.354;8.528;2024-01-07T08:14:06;7.30;84.30
4578;DHT22;2301;47.354;8.528;2024-01-07T08:16:34;7.20;84.40
4578;DHT22;2301;47.354;8.528;2024-01-07T08:19:01;7.10;84.70
4578;DHT22;2301;47.354;8.528;2024-01-07T08:21:28;7.20;84.90
4578;DHT22;2301;47.354;8.528;2024-01-07T08:23:55;7.20;85.00
4578;DHT22;2301;47.354;8.528;2024-01-07T08:26:23;7.00;85.00
4578;DHT22;2301;47.354;8.528;2024-01-07T08:28:50;7.10;85.20
4578;DHT22;2301;47.354;8.528;2024-01-07T08:31:17;7.00;85.20
4578;DHT22;2301;47.354;8.528;2024-01-07T08:33:45;7.00;85.50
4578;DHT22;2301;47.354;8.528;2024-01-07T08:36:11;6.90;85.60
4578;DHT22;2301;47.354;8.528;2024-01-07T08:38:38;7.00;86.00
4578;DHT22;2301;47.354;8.528;2024-01-07T08:41:05;7.00;86.00
4578;DHT22;2301;47.354;8.528;2024-01-07T08:43:34;7.00;86.10
4578;DHT22;2301;47.354;8.528;2024-01-07T08:46:03;7.00;86.30
4578;DHT22;2301;47.354;8.528;2024-01-07T08:48:30;7.00;86.40
4578;DHT22;2301;47.354;8.528;2024-01-07T08:50:57;7.00;86.40
4578;DHT22;2301;47.354;8.528;2024-01-07T08:53:24;7.00;86.70
4578;DHT22;2301;47.354;8.528;2024-01-07T08:55:51;7.10;86.80
4578;DHT22;2301;47.354;8.528;2024-01-07T08:58:18;7.00;86.50
4578;DHT22;2301;47.354;8.528;2024-01-07T09:00:46;7.10;86.80
4578;DHT22;2301;47.354;8.528;2024-01-07T09:03:13;7.00;86.90
4578;DHT22;2301;47.354;8.528;2024-01-07T09:05:40;7.10;87.00
4578;DHT22;2301;47.354;8.528;2024-01-07T09:08:07;7.10;87.20
4578;DHT22;2301;47.354;8.528;2024-01-07T09:10:36;7.10;87.30
4578;DHT22;2301;47.354;8.528;2024-01-07T09:13:03;7.10;87.20
4578;DHT22;2301;47.354;8.528;2024-01-07T09:15:30;7.10;87.00
4578;DHT22;2301;47.354;8.528;2024-01-07T09:17:59;7.10;87.10
4578;DHT22;2301;47.354;8.528;2024-01-07T09:20:26;7.10;87.10
4578;DHT22;2301;47.354;8.528;2024-01-07T09:22:53;7.10;87.30
4578;DHT22;2301;47.354;8.528;2024-01-07T09:25:19;7.10;87.60
4578;DHT22;2301;47.354;8.528;2024-01-07T09:27:46;7.10;87.60
4578;DHT22;2301;47.354;8.528;2024-01-07T09:30:13;7.10;87.80
4578;DHT22;2301;47.354;8.528;2024-01-07T09:32:41;7.10;87.70
4578;DHT22;2301;47.354;8.528;2024-01-07T09:35:09;7.10;87.80
4578;DHT22;2301;47.354;8.528;2024-01-07T09:37:36;7.10;88.00
4578;DHT22;2301;47.354;8.528;2024-01-07T09:40:04;7.10;87.90
4578;DHT22;2301;47.354;8.528;2024-01-07T09:42:31;7.10;88.00
4578;DHT22;2301;47.354;8.528;2024-01-07T09:45:01;7.20;88.30
4578;DHT22;2301;47.354;8.528;2024-01-07T09:47:29;7.20;88.10
4578;DHT22;2301;47.354;8.528;2024-01-07T09:49:57;7.20;88.10
4578;DHT22;2301;47.354;8.528;2024-01-07T09:52:26;7.10;88.10
4578;DHT22;2301;47.354;8.528;2024-01-07T09:54:58;7.20;88.40
4578;DHT22;2301;47.354;8.528;2024-01-07T09:57:25;7.20;88.40
4578;DHT22;2301;47.354;8.528;2024-01-07T09:59:52;7.30;88.70
4578;DHT22;2301;47.354;8.528;2024-01-07T10:02:20;7.20;88.40
4578;DHT22;2301;47.354;8.528;2024-01-07T10:04:47;7.20;88.30
4578;DHT22;2301;47.354;8.528;2024-01-07T10:07:15;7.20;88.50
4578;DHT22;2301;47.354;8.528;2024-01-07T10:09:44;7.20;88.50
4578;DHT22;2301;47.354;8.528;2024-01-07T10:12:11;7.20;88.50
4578;DHT22;2301;47.354;8.528;2024-01-07T10:14:38;7.20;88.60
4578;DHT22;2301;47.354;8.528;2024-01-07T10:17:14;7.30;88.80
4578;DHT22;2301;47.354;8.528;2024-01-07T10:19:43;7.30;88.70
4578;DHT22;2301;47.354;8.528;2024-01-07T10:22:12;7.30;89.00
4578;DHT22;2301;47.354;8.528;2024-01-07T10:24:40;7.40;89.10
4578;DHT22;2301;47.354;8.528;2024-01-07T10:27:09;7.30;89.00
4578;DHT22;2301;47.354;8.528;2024-01-07T10:29:36;7.30;89.20
4578;DHT22;2301;47.354;8.528;2024-01-07T10:32:03;7.30;89.30
4578;DHT22;2301;47.354;8.528;2024-01-07T10:34:32;7.30;88.90
4578;DHT22;2301;47.354;8.528;2024-01-07T10:37:00;7.30;88.70
4578;DHT22;2301;47.354;8.528;2024-01-07T10:39:27;7.30;88.70
4578;DHT22;2301;47.354;8.528;2024-01-07T10:41:55;7.20;88.50
4578;DHT22;2301;47.354;8.528;2024-01-07T10:44:26;7.20;88.60
4578;DHT22;2301;47.354;8.528;2024-01-07T10:46:54;7.20;88.80
4578;DHT22;2301;47.354;8.528;2024-01-07T10:49:23;7.20;88.80
4578;DHT22;2301;47.354;8.528;2024-01-07T10:52:01;7.20;88.90
4578;DHT22;2301;47.354;8.528;2024-01-07T10:54:30;7.20;88.80
4578;DHT22;2301;47.354;8.528;2024-01-07T10:57:00;7.30;89.00
4578;DHT22;2301;47.354;8.528;2024-01-07T10:59:32;7.30;89.20
4578;DHT22;2301;47.354;8.528;2024-01-07T11:02:00;7.20;88.90
4578;DHT22;2301;47.354;8.528;2024-01-07T11:04:32;7.40;91.50
4578;DHT22;2301;47.354;8.528;2024-01-07T11:07:12;7.60;91.70
4578;DHT22;2301;47.354;8.528;2024-01-07T11:09:50;7.70;92.40
4578;DHT22;2301;47.354;8.528;2024-01-07T11:12:20;8.40;96.80
4578;DHT22;2301;47.354;8.528;2024-01-07T11:14:49;8.50;94.60
4578;DHT22;2301;47.354;8.528;2024-01-07T11:17:40;8.40;92.70
4578;DHT22;2301;47.354;8.528;2024-01-07T11:20:18;8.30;91.60
4578;DHT22;2301;47.354;8.528;2024-01-07T11:22:45;8.10;90.90
4578;DHT22;2301;47.354;8.528;2024-01-07T11:25:29;8.00;90.60
4578;DHT22;2301;47.354;8.528;2024-01-07T11:27:56;8.00;90.40
4578;DHT22;2301;47.354;8.528;2024-01-07T11:30:25;7.90;90.20
4578;DHT22;2301;47.354;8.528;2024-01-07T11:32:59;7.90;90.20
4578;DHT22;2301;47.354;8.528;2024-01-07T11:35:53;7.90;90.30
4578;DHT22;2301;47.354;8.528;2024-01-07T11:38:21;7.90;90.20
4578;DHT22;2301;47.354;8.528;2024-01-07T11:40:49;7.80;90.10
4578;DHT22;2301;47.354;8.528;2024-01-07T11:43:16;7.80;90.00
4578;DHT22;2301;47.354;8.528;2024-01-07T11:45:46;7.80;89.70
4578;DHT22;2301;47.354;8.528;2024-01-07T11:48:13;7.80;90.10
4578;DHT22;2301;47.354;8.528;2024-01-07T11:50:41;7.70;89.40
4578;DHT22;2301;47.354;8.528;2024-01-07T11:53:08;7.70;89.40
4578;DHT22;2301;47.354;8.528;2024-01-07T11:55:35;7.60;89.20
4578;DHT22;2301;47.354;8.528;2024-01-07T11:58:02;7.60;89.30
4578;DHT22;2301;47.354;8.528;2024-01-07T12:00:31;7.70;89.50
4578;DHT22;2301;47.354;8.528;2024-01-07T12:03:00;7.60;89.50
4578;DHT22;2301;47.354;8.528;2024-01-07T12:05:28;7.60;89.70
4578;DHT22;2301;47.354;8.528;2024-01-07T12:07:55;7.60;89.70
4578;DHT22;2301;47.354;8.528;2024-01-07T12:10:23;7.50;89.60
4578;DHT22;2301;47.354;8.528;2024-01-07T12:12:50;7.50;89.40
4578;DHT22;2301;47.354;8.528;2024-01-07T12:15:18;7.50;89.30
4578;DHT22;2301;47.354;8.528;2024-01-07T12:17:55;7.50;89.40
4578;DHT22;2301;47.354;8.528;2024-01-07T12:20:24;7.50;89.60
4578;DHT22;2301;47.354;8.528;2024-01-07T12:22:51;7.50;89.70
4578;DHT22;2301;47.354;8.528;2024-01-07T12:25:22;7.50;89.70
4578;DHT22;2301;47.354;8.528;2024-01-07T12:27:50;7.50;89.90
4578;DHT22;2301;47.354;8.528;2024-01-07T12:30:19;7.50;90.00
4578;DHT22;2301;47.354;8.528;2024-01-07T12:32:46;7.50;89.80
4578;DHT22;2301;47.354;8.528;2024-01-07T12:35:13;7.50;89.60
4578;DHT22;2301;47.354;8.528;2024-01-07T12:37:42;7.40;89.50
4578;DHT22;2301;47.354;8.528;2024-01-07T12:40:11;7.50;89.70
4578;DHT22;2301;47.354;8.528;2024-01-07T12:42:38;7.40;89.80
4578;DHT22;2301;47.354;8.528;2024-01-07T12:45:10;7.50;89.60
4578;DHT22;2301;47.354;8.528;2024-01-07T12:47:39;7.40;89.20
4578;DHT22;2301;47.354;8.528;2024-01-07T12:50:06;7.40;89.10
4578;DHT22;2301;47.354;8.528;2024-01-07T12:52:34;7.40;88.80
4578;DHT22;2301;47.354;8.528;2024-01-07T12:55:03;7.40;88.80
4578;DHT22;2301;47.354;8.528;2024-01-07T12:57:30;7.40;88.90
4578;DHT22;2301;47.354;8.528;2024-01-07T12:59:57;7.40;88.80
4578;DHT22;2301;47.354;8.528;2024-01-07T13:02:23;7.40;88.80
4578;DHT22;2301;47.354;8.528;2024-01-07T13:04:51;7.30;88.90
4578;DHT22;2301;47.354;8.528;2024-01-07T13:07:17;7.40;88.60
4578;DHT22;2301;47.354;8.528;2024-01-07T13:09:44;7.40;88.50
4578;DHT22;2301;47.354;8.528;2024-01-07T13:12:12;7.40;88.60
4578;DHT22;2301;47.354;8.528;2024-01-07T13:14:40;7.40;88.60
4578;DHT22;2301;47.354;8.528;2024-01-07T13:17:08;7.30;88.50
4578;DHT22;2301;47.354;8.528;2024-01-07T13:19:35;7.30;88.70
4578;DHT22;2301;47.354;8.528;2024-01-07T13:22:03;7.30;88.60
4578;DHT22;2301;47.354;8.528;2024-01-07T13:24:30;7.30;88.60
4578;DHT22;2301;47.354;8.528;2024-01-07T13:26:57;7.30;88.60
4578;DHT22;2301;47.354;8.528;2024-01-07T13:29:25;7.30;88.60
4578;DHT22;2301;47.354;8.528;2024-01-07T13:31:52;7.30;88.80
4578;DHT22;2301;47.354;8.528;2024-01-07T13:34:19;7.30;88.80
4578;DHT22;2301;47.354;8.528;2024-01-07T13:36:45;7.20;88.60
4578;DHT22;2301;47.354;8.528;2024-01-07T13:39:12;7.20;88.60
4578;DHT22;2301;47.354;8.528;2024-01-07T13:41:41;7.30;88.90
4578;DHT22;2301;47.354;8.528;2024-01-07T13:44:08;7.30;89.20
4578;DHT22;2301;47.354;8.528;2024-01-07T13:46:44;7.30;89.20
4578;DHT22;2301;47.354;8.528;2024-01-07T13:49:12;7.30;89.20
4578;DHT22;2301;47.354;8.528;2024-01-07T13:51:39;7.20;89.00
4578;DHT22;2301;47.354;8.528;2024-01-07T13:54:06;7.10;88.40
4578;DHT22;2301;47.354;8.528;2024-01-07T13:56:34;7.00;88.10
4578;DHT22;2301;47.354;8.528;2024-01-07T13:59:03;7.00;88.40
4578;DHT22;2301;47.354;8.528;2024-01-07T14:01:30;7.00;90.20
4578;DHT22;2301;47.354;8.528;2024-01-07T14:03:59;7.10;90.90
4578;DHT22;2301;47.354;8.528;2024-01-07T14:06:26;7.10;90.60
4578;DHT22;2301;47.354;8.528;2024-01-07T14:08:52;7.30;90.20
4578;DHT22;2301;47.354;8.528;2024-01-07T14:11:20;7.30;89.60
4578;DHT22;2301;47.354;8.528;2024-01-07T14:13:47;7.30;88.80
4578;DHT22;2301;47.354;8.528;2024-01-07T14:16:14;7.20;88.40
4578;DHT22;2301;47.354;8.528;2024-01-07T14:18:41;7.20;88.40
4578;DHT22;2301;47.354;8.528;2024-01-07T14:21:09;7.10;88.40
4578;DHT22;2301;47.354;8.528;2024-01-07T14:23:36;7.10;88.10
4578;DHT22;2301;47.354;8.528;2024-01-07T14:26:04;7.00;87.90
4578;DHT22;2301;47.354;8.528;2024-01-07T14:28:30;6.90;87.80
4578;DHT22;2301;47.354;8.528;2024-01-07T14:30:57;6.90;88.00
4578;DHT22;2301;47.354;8.528;2024-01-07T14:33:24;6.90;87.80
4578;DHT22;2301;47.354;8.528;2024-01-07T14:35:51;6.80;87.90
4578;DHT22;2301;47.354;8.528;2024-01-07T14:38:20;6.80;88.10
4578;DHT22;2301;47.354;8.528;2024-01-07T14:40:48;6.80;88.30
4578;DHT22;2301;47.354;8.528;2024-01-07T14:43:17;6.80;88.20
4578;DHT22;2301;47.354;8.528;2024-01-07T14:45:44;6.80;88.10
4578;DHT22;2301;47.354;8.528;2024-01-07T14:48:11;6.80;88.10
4578;DHT22;2301;47.354;8.528;2024-01-07T14:50:39;6.80;88.00
4578;DHT22;2301;47.354;8.528;2024-01-07T14:53:06;6.70;87.90
4578;DHT22;2301;47.354;8.528;2024-01-07T14:55:35;6.70;88.00
4578;DHT22;2301;47.354;8.528;2024-01-07T14:58:02;6.70;88.20
4578;DHT22;2301;47.354;8.528;2024-01-07T15:00:29;6.70;87.90
4578;DHT22;2301;47.354;8.528;2024-01-07T15:02:56;6.70;88.10
4578;DHT22;2301;47.354;8.528;2024-01-07T15:05:23;6.60;87.80
4578;DHT22;2301;47.354;8.528;2024-01-07T15:07:49;6.60;87.90
4578;DHT22;2301;47.354;8.528;2024-01-07T15:10:17;6.70;88.10
4578;DHT22;2301;47.354;8.528;2024-01-07T15:12:46;6.60;88.20
4578;DHT22;2301;47.354;8.528;2024-01-07T15:15:15;6.60;87.90
4578;DHT22;2301;47.354;8.528;2024-01-07T15:17:42;6.60;87.90
4578;DHT22;2301;47.354;8.528;2024-01-07T15:20:10;6.50;87.80
4578;DHT22;2301;47.354;8.528;2024-01-07T15:22:37;6.50;87.90
4578;DHT22;2301;47.354;8.528;2024-01-07T15:25:05;6.40;87.60
4578;DHT22;2301;47.354;8.528;2024-01-07T15:27:33;6.40;87.90
4578;DHT22;2301;47.354;8.528;2024-01-07T15:30:02;6.30;87.70
4578;DHT22;2301;47.354;8.528;2024-01-07T15:32:30;6.30;87.90
4578;DHT22;2301;47.354;8.528;2024-01-07T15:34:57;6.30;87.80
4578;DHT22;2301;47.354;8.528;2024-01-07T15:37:25;6.20;88.00
4578;DHT22;2301;47.354;8.528;2024-01-07T15:39:52;6.20;88.00
4578;DHT22;2301;47.354;8.528;2024-01-07T15:42:20;6.20;88.00
4578;DHT22;2301;47.354;8.528;2024-01-07T15:44:47;6.20;88.00
4578;DHT22;2301;47.354;8.528;2024-01-07T15:47:15;6.20;88.10
4578;DHT22;2301;47.354;8.528;2024-01-07T15:49:42;6.20;88.20
4578;DHT22;2301;47.354;8.528;2024-01-07T15:52:09;6.20;88.30
4578;DHT22;2301;47.354;8.528;2024-01-07T15:54:36;6.20;88.40
4578;DHT22;2301;47.354;8.528;2024-01-07T15:57:03;6.20;89.20
4578;DHT22;2301;47.354;8.528;2024-01-07T15:59:31;6.20;88.60
4578;DHT22;2301;47.354;8.528;2024-01-07T16:01:58;6.20;89.20
4578;DHT22;2301;47.354;8.528;2024-01-07T16:04:26;6.20;88.00
4578;DHT22;2301;47.354;8.528;2024-01-07T16:06:54;6.10;87.80
4578;DHT22;2301;47.354;8.528;2024-01-07T16:09:21;6.10;87.50
4578;DHT22;2301;47.354;8.528;2024-01-07T16:11:48;6.10;87.60